Hauptseite
METAR-TAF:

METAR-TAF

Flughäfen :

Flughafen Lübeck

Lübeck, Deutschland

Breite: 53-49N, Länge: 010-42E, Höhe: 14 m

Beobachtung

Neuester Wetterbericht von vor 18 Minuten, um 07:50 UTC
Wind 3 kt aus Nordost, variierte zwischen Nord und Südost
Temperatur 22°C
Luftfeuchtigkeit 60%
Luftdruck 1025 hPa
Sichtweite 10 km oder mehr
keine Wolken unter 1500 m und keine Kumulonimbus oder Gewitterwolken

METAR: EDHL 110750Z 05003KT 350V130 CAVOK 22/14 Q1025 RMK

Zeit: 10:08 (08:08 UTC)

Prognose

Neuester Wetterbericht von vor 3 Stunden und 8 Minuten, um 05:00 UTC
Gültige Prognose vom 11 um 06 UTC bis 11 um 15 UTC
Wind 2 kt aus unterschiedlichen Richtungen
Sichtweite 10 km oder mehr
keine Wolken unter 1500 m und keine Kumulonimbus oder Gewitterwolken
Übergehend zu
vom 11 um 06 UTC bis 11 um 08 UTC
Wind 6 kt aus Ost/Nordost

TAF: EDHL 110500Z 1106/1115 VRB02KT CAVOK BECMG 1106/1108 06006KT

Wetterbeobachtungen und Prognosen von mehr als 4000 Flughäfen (METAR und TAF Bericht).

Die verfügbaren Stationen werden durch gelbe und rote Markierungen auf der Karte dargestellt.

Führen Sie die Maus auf sie, um den Namen der Station zu sehen.

Darauf klicken, um die Beobachtung von Wetterbeobachtungen und Prognosen zu sehen.

Um die Karte zu ändern : klicken Sie auf den grünen Tasten mit einem schwarzen Kreuz Zum Vergrößern, auf den grünen Button mit einem Gedankenstrich zu verkleinern, oder auf die grünen Pfeile für benachbarte Karten.


METAR-TAF: